createdAt,value
2023-06-17T00:00:58.294Z,18.20
2023-06-17T00:03:25.674Z,18.20
2023-06-17T00:05:53.013Z,18.10
2023-06-17T00:08:20.785Z,18.10
2023-06-17T00:10:47.985Z,18.00
2023-06-17T00:13:20.791Z,18.00
2023-06-17T00:15:58.024Z,17.90
2023-06-17T00:18:25.665Z,17.90
2023-06-17T00:20:55.803Z,17.80
2023-06-17T00:23:23.399Z,17.80
2023-06-17T00:25:51.160Z,17.80
2023-06-17T00:28:18.281Z,17.70
2023-06-17T00:30:47.222Z,17.70
2023-06-17T00:33:15.071Z,17.60
2023-06-17T00:35:42.229Z,17.60
2023-06-17T00:38:09.426Z,17.60
2023-06-17T00:40:37.393Z,17.50
2023-06-17T00:43:04.436Z,17.50
2023-06-17T00:45:31.921Z,17.50
2023-06-17T00:48:00.668Z,17.50
2023-06-17T00:50:30.219Z,17.40
2023-06-17T00:52:57.316Z,17.40
2023-06-17T00:55:24.758Z,17.40
2023-06-17T00:57:54.360Z,17.40
2023-06-17T01:00:21.649Z,17.40
2023-06-17T01:02:49.056Z,17.30
2023-06-17T01:05:18.346Z,17.30
2023-06-17T01:08:15.467Z,17.30
2023-06-17T01:11:09.465Z,17.30
2023-06-17T01:13:37.492Z,17.20
2023-06-17T01:16:06.252Z,17.10
2023-06-17T01:18:34.175Z,17.10
2023-06-17T01:21:04.735Z,17.10
2023-06-17T01:23:38.309Z,17.00
2023-06-17T01:26:08.474Z,17.00
2023-06-17T01:28:41.296Z,17.00
2023-06-17T01:31:09.434Z,16.90
2023-06-17T01:33:39.383Z,16.90
2023-06-17T01:36:17.930Z,16.80
2023-06-17T01:38:55.042Z,16.80
2023-06-17T01:41:31.067Z,16.80
2023-06-17T01:43:58.967Z,16.80
2023-06-17T01:46:26.567Z,16.70
2023-06-17T01:48:55.171Z,16.70
2023-06-17T01:51:22.900Z,16.70
2023-06-17T01:53:50.042Z,16.60
2023-06-17T01:56:19.598Z,16.70
2023-06-17T01:58:48.009Z,16.60
2023-06-17T02:01:15.728Z,16.60
2023-06-17T02:03:47.863Z,16.60
2023-06-17T02:06:19.876Z,16.60
2023-06-17T02:08:49.008Z,16.60
2023-06-17T02:11:16.306Z,16.50
2023-06-17T02:13:43.571Z,16.40
2023-06-17T02:16:11.489Z,16.40
2023-06-17T02:18:38.711Z,16.30
2023-06-17T02:21:05.742Z,16.30
2023-06-17T02:23:32.779Z,16.30
2023-06-17T02:26:00.037Z,16.30
2023-06-17T02:28:27.147Z,16.30
2023-06-17T02:30:54.191Z,16.20
2023-06-17T02:33:22.486Z,16.10
2023-06-17T02:35:49.530Z,16.10
2023-06-17T02:38:16.657Z,16.10
2023-06-17T02:40:43.679Z,16.10
2023-06-17T02:43:10.748Z,16.00
2023-06-17T02:45:37.900Z,16.00
2023-06-17T02:48:04.984Z,16.10
2023-06-17T02:50:32.098Z,16.00
2023-06-17T02:52:59.348Z,16.00
2023-06-17T02:55:30.136Z,16.00
2023-06-17T02:57:59.192Z,16.00
2023-06-17T03:00:30.916Z,15.90
2023-06-17T03:02:58.751Z,15.90
2023-06-17T03:05:26.000Z,15.90
2023-06-17T03:07:53.075Z,15.90
2023-06-17T03:10:20.571Z,15.90
2023-06-17T03:12:54.250Z,15.90
2023-06-17T03:15:22.160Z,15.80
2023-06-17T03:17:49.502Z,15.80
2023-06-17T03:20:19.454Z,15.80
2023-06-17T03:22:48.660Z,15.70
2023-06-17T03:25:16.147Z,15.70
2023-06-17T03:27:43.220Z,15.70
2023-06-17T03:30:10.966Z,15.70
2023-06-17T03:32:38.444Z,15.60
2023-06-17T03:35:06.009Z,15.60
2023-06-17T03:37:33.121Z,15.60
2023-06-17T03:40:00.284Z,15.60
2023-06-17T03:42:31.660Z,15.60
2023-06-17T03:44:58.809Z,15.50
2023-06-17T03:47:25.915Z,15.50
2023-06-17T03:49:54.036Z,15.50
2023-06-17T03:52:21.181Z,15.50
2023-06-17T03:54:48.760Z,15.50
2023-06-17T03:57:17.948Z,15.60
2023-06-17T03:59:45.165Z,15.60
2023-06-17T04:02:12.557Z,15.60
2023-06-17T04:04:41.316Z,15.70
2023-06-17T04:07:12.035Z,15.70
2023-06-17T04:09:39.174Z,15.70
2023-06-17T04:12:08.330Z,15.70
2023-06-17T04:14:36.103Z,15.70
2023-06-17T04:17:03.176Z,15.70
2023-06-17T04:19:30.564Z,15.80
2023-06-17T04:21:58.135Z,15.80
2023-06-17T04:24:25.773Z,15.80
2023-06-17T04:26:54.022Z,15.80
2023-06-17T04:29:23.589Z,15.90
2023-06-17T04:31:51.013Z,15.90
2023-06-17T04:34:24.450Z,16.00
2023-06-17T04:36:58.543Z,16.20
2023-06-17T04:39:29.275Z,16.30
2023-06-17T04:41:57.698Z,16.20
2023-06-17T04:44:24.686Z,16.20
2023-06-17T04:46:51.813Z,16.30
2023-06-17T04:49:19.534Z,16.30
2023-06-17T04:51:49.635Z,16.30
2023-06-17T04:54:17.692Z,16.40
2023-06-17T04:56:44.955Z,16.50
2023-06-17T04:59:12.100Z,16.60
2023-06-17T05:01:39.366Z,16.60
2023-06-17T05:04:08.856Z,16.70
2023-06-17T05:06:36.398Z,16.80
2023-06-17T05:09:04.079Z,16.90
2023-06-17T05:11:31.768Z,17.00
2023-06-17T05:13:58.942Z,17.10
2023-06-17T05:16:25.968Z,17.20
2023-06-17T05:18:52.983Z,17.30
2023-06-17T05:21:24.050Z,17.40
2023-06-17T05:23:52.938Z,17.50
2023-06-17T05:26:20.500Z,17.60
2023-06-17T05:28:47.884Z,17.70
2023-06-17T05:31:18.861Z,17.80
2023-06-17T05:33:46.168Z,18.00
2023-06-17T05:36:13.370Z,18.10
2023-06-17T05:38:40.907Z,18.20
2023-06-17T05:41:07.953Z,18.30
2023-06-17T05:43:35.859Z,18.40
2023-06-17T05:46:03.649Z,18.50
2023-06-17T05:48:31.034Z,18.60
2023-06-17T05:50:58.160Z,18.70
2023-06-17T05:53:25.248Z,18.80
2023-06-17T05:55:52.913Z,18.90
2023-06-17T05:58:20.051Z,19.00
2023-06-17T06:00:54.639Z,19.10
2023-06-17T06:03:21.707Z,19.10
2023-06-17T06:05:49.647Z,19.20
2023-06-17T06:08:16.622Z,19.20
2023-06-17T06:10:46.198Z,19.30
2023-06-17T06:13:13.668Z,19.40
2023-06-17T06:15:40.833Z,19.50
2023-06-17T06:18:08.255Z,19.60
2023-06-17T06:20:35.721Z,19.70
2023-06-17T06:23:02.830Z,19.80
2023-06-17T06:25:29.954Z,19.80
2023-06-17T06:28:00.174Z,19.90
2023-06-17T06:30:29.884Z,20.00
2023-06-17T06:32:57.268Z,20.10
2023-06-17T06:35:25.097Z,20.20
2023-06-17T06:37:52.670Z,20.30
2023-06-17T06:40:20.275Z,20.40
2023-06-17T06:42:47.631Z,20.60
2023-06-17T06:45:37.560Z,20.70
2023-06-17T06:48:05.106Z,20.70
2023-06-17T06:50:34.461Z,20.80
2023-06-17T06:53:02.358Z,20.70
2023-06-17T06:55:32.263Z,20.80
2023-06-17T06:57:59.520Z,20.90
2023-06-17T07:00:26.826Z,21.00
2023-06-17T07:02:54.129Z,21.10
2023-06-17T07:05:26.044Z,21.10
2023-06-17T07:07:59.150Z,21.20
2023-06-17T07:10:26.277Z,21.40
2023-06-17T07:12:53.833Z,21.60
2023-06-17T07:15:23.516Z,21.70
2023-06-17T07:17:51.384Z,21.80
2023-06-17T07:20:21.162Z,21.90
2023-06-17T07:22:49.340Z,21.90
2023-06-17T07:25:19.757Z,21.90
2023-06-17T07:27:47.022Z,21.90
2023-06-17T07:30:15.093Z,22.00
2023-06-17T07:32:42.231Z,22.00
2023-06-17T07:35:10.103Z,22.10
2023-06-17T07:37:37.606Z,22.20
2023-06-17T07:40:07.493Z,22.40
2023-06-17T07:42:34.639Z,22.50
2023-06-17T07:45:01.617Z,22.60
2023-06-17T07:47:28.800Z,22.70
2023-06-17T07:49:55.837Z,22.80
2023-06-17T07:52:22.955Z,23.00
2023-06-17T07:54:50.067Z,23.10
2023-06-17T07:57:24.512Z,23.20
2023-06-17T07:59:51.559Z,23.20
2023-06-17T08:02:22.431Z,23.30
2023-06-17T08:04:50.521Z,23.30
2023-06-17T08:07:17.683Z,23.50
2023-06-17T08:09:45.016Z,23.50
2023-06-17T08:12:11.998Z,23.60
2023-06-17T08:14:38.939Z,23.80
2023-06-17T08:17:06.396Z,24.00
2023-06-17T08:19:34.340Z,24.20
2023-06-17T08:22:01.433Z,24.30
2023-06-17T08:24:28.797Z,24.50
2023-06-17T08:26:55.945Z,24.60
2023-06-17T08:29:23.605Z,24.70
2023-06-17T08:31:52.958Z,24.70
2023-06-17T08:34:23.439Z,24.80
2023-06-17T08:36:56.028Z,24.90
2023-06-17T08:39:23.459Z,25.00
2023-06-17T08:41:51.834Z,24.90
2023-06-17T08:44:22.306Z,25.10
2023-06-17T08:46:52.654Z,25.30
2023-06-17T08:49:24.191Z,25.40
2023-06-17T08:51:51.929Z,25.30
2023-06-17T08:54:21.708Z,25.40
2023-06-17T08:56:49.606Z,25.50
2023-06-17T08:59:18.613Z,25.60
2023-06-17T09:01:46.361Z,25.70
2023-06-17T09:04:15.204Z,25.90
2023-06-17T09:06:42.243Z,25.90
2023-06-17T09:09:09.319Z,25.90
2023-06-17T09:11:36.294Z,26.00
2023-06-17T09:14:03.571Z,26.10
2023-06-17T09:16:35.830Z,26.20
2023-06-17T09:19:07.854Z,26.40
2023-06-17T09:21:36.430Z,26.40
2023-06-17T09:24:05.883Z,26.40
2023-06-17T09:26:35.326Z,26.50
2023-06-17T09:29:03.967Z,26.60
2023-06-17T09:31:31.868Z,26.60
2023-06-17T09:33:59.521Z,26.70
2023-06-17T09:36:27.133Z,26.70
2023-06-17T09:38:54.122Z,26.70
2023-06-17T09:41:24.893Z,26.80
2023-06-17T09:43:55.938Z,26.80
2023-06-17T09:46:36.309Z,26.80
2023-06-17T09:49:24.388Z,26.80
2023-06-17T09:51:55.291Z,26.90
2023-06-17T09:54:22.801Z,27.10
2023-06-17T09:56:51.805Z,27.20
2023-06-17T09:59:22.873Z,27.10
2023-06-17T10:01:50.181Z,27.10
2023-06-17T10:04:19.660Z,27.10
2023-06-17T10:06:49.667Z,27.20
2023-06-17T10:09:19.502Z,27.30
2023-06-17T10:11:49.681Z,27.40
2023-06-17T10:14:33.076Z,27.40
2023-06-17T10:17:01.653Z,27.50
2023-06-17T10:19:33.238Z,27.60
2023-06-17T10:22:01.098Z,27.50
2023-06-17T10:24:28.997Z,27.40
2023-06-17T10:29:31.026Z,27.40
2023-06-17T10:32:24.300Z,27.40
2023-06-17T10:35:06.799Z,27.60
2023-06-17T10:37:51.199Z,27.70
2023-06-17T10:40:31.902Z,27.90
2023-06-17T10:43:04.792Z,28.00
2023-06-17T10:45:50.896Z,28.00
2023-06-17T10:48:32.226Z,28.10
2023-06-17T10:51:02.828Z,28.20
2023-06-17T10:53:37.282Z,28.20
2023-06-17T10:56:06.540Z,28.30
2023-06-17T10:58:37.084Z,28.30
2023-06-17T11:01:06.048Z,28.40
2023-06-17T11:03:35.630Z,28.50
2023-06-17T11:06:04.483Z,28.50
2023-06-17T11:08:36.363Z,28.50
2023-06-17T11:11:16.583Z,28.70
2023-06-17T11:13:45.821Z,28.90
2023-06-17T11:16:12.975Z,28.90
2023-06-17T11:18:44.536Z,28.80
2023-06-17T11:21:11.820Z,28.80
2023-06-17T11:23:39.985Z,28.70
2023-06-17T11:26:09.106Z,28.70
2023-06-17T11:28:42.723Z,28.80
2023-06-17T11:31:09.905Z,28.80
2023-06-17T11:33:40.068Z,29.10
2023-06-17T11:36:11.043Z,29.20
2023-06-17T11:38:39.193Z,29.30
2023-06-17T11:41:08.697Z,29.40
2023-06-17T11:43:36.831Z,29.60
2023-06-17T11:46:04.142Z,29.70
2023-06-17T11:48:34.839Z,29.80
2023-06-17T11:51:02.278Z,30.00
2023-06-17T11:53:38.486Z,30.00
2023-06-17T11:56:09.332Z,30.30
2023-06-17T11:58:41.020Z,30.60
2023-06-17T12:01:10.074Z,30.80
2023-06-17T12:03:38.005Z,31.10
2023-06-17T12:06:06.288Z,31.40
2023-06-17T12:08:38.321Z,31.70
2023-06-17T12:11:22.089Z,32.00
2023-06-17T12:13:49.727Z,32.40
2023-06-17T12:16:34.856Z,32.60
2023-06-17T12:19:04.699Z,32.80
2023-06-17T12:21:31.803Z,33.10
2023-06-17T12:23:59.779Z,33.40
2023-06-17T12:26:28.041Z,33.60
2023-06-17T12:28:55.779Z,33.70
2023-06-17T12:31:23.315Z,33.70
2023-06-17T12:33:50.615Z,33.60
2023-06-17T12:36:18.511Z,33.50
2023-06-17T12:38:46.814Z,33.70
2023-06-17T12:41:14.132Z,34.10
2023-06-17T12:43:42.214Z,34.40
2023-06-17T12:46:09.817Z,34.50
2023-06-17T12:48:37.801Z,34.40
2023-06-17T12:51:05.077Z,34.30
2023-06-17T12:53:32.280Z,34.40
2023-06-17T12:55:59.839Z,34.60
2023-06-17T12:58:27.114Z,34.90
2023-06-17T13:00:55.189Z,35.10
2023-06-17T13:03:22.748Z,35.40
2023-06-17T13:05:51.182Z,35.60
2023-06-17T13:08:20.913Z,36.00
2023-06-17T13:10:48.158Z,36.20
2023-06-17T13:13:15.210Z,36.10
2023-06-17T13:15:42.297Z,36.00
2023-06-17T13:18:09.484Z,36.00
2023-06-17T13:20:37.042Z,36.10
2023-06-17T13:23:05.501Z,36.00
2023-06-17T13:25:32.656Z,36.10
2023-06-17T13:27:59.692Z,36.10
2023-06-17T13:30:26.959Z,36.40
2023-06-17T13:32:54.230Z,36.60
2023-06-17T13:35:21.443Z,36.80
2023-06-17T13:37:48.685Z,36.90
2023-06-17T13:40:16.333Z,37.30
2023-06-17T13:42:43.411Z,37.60
2023-06-17T13:45:13.285Z,37.50
2023-06-17T13:47:42.757Z,37.20
2023-06-17T13:50:10.605Z,37.00
2023-06-17T13:52:37.797Z,37.10
2023-06-17T13:55:05.377Z,37.40
2023-06-17T13:57:32.427Z,37.60
2023-06-17T13:59:59.575Z,37.90
2023-06-17T14:02:26.799Z,38.20
2023-06-17T14:04:54.981Z,38.40
2023-06-17T14:07:22.622Z,38.30
2023-06-17T14:09:49.674Z,38.50
2023-06-17T14:12:19.728Z,38.50
2023-06-17T14:14:47.721Z,38.20
2023-06-17T14:17:15.234Z,38.00
2023-06-17T14:19:44.736Z,38.00
2023-06-17T14:22:11.761Z,38.20
2023-06-17T14:24:40.348Z,38.30
2023-06-17T14:27:14.382Z,38.40
2023-06-17T14:29:41.377Z,38.50
2023-06-17T14:32:08.663Z,38.60
2023-06-17T14:34:38.434Z,38.80
2023-06-17T14:37:06.058Z,38.50
2023-06-17T14:39:33.144Z,38.30
2023-06-17T14:42:00.362Z,38.30
2023-06-17T14:44:27.314Z,38.40
2023-06-17T14:46:54.327Z,38.60
2023-06-17T14:49:21.433Z,38.90
2023-06-17T14:51:49.485Z,38.90
2023-06-17T14:54:16.472Z,39.00
2023-06-17T14:56:43.636Z,39.00
2023-06-17T14:59:11.314Z,38.80
2023-06-17T15:01:39.501Z,38.40
2023-06-17T15:04:13.396Z,37.90
2023-06-17T15:06:42.228Z,37.50
2023-06-17T15:09:26.827Z,37.70
2023-06-17T15:11:59.234Z,37.70
2023-06-17T15:14:31.977Z,37.60
2023-06-17T15:17:00.056Z,37.60
2023-06-17T15:19:27.104Z,37.70
2023-06-17T15:21:54.221Z,37.90
2023-06-17T15:24:21.214Z,37.80
2023-06-17T15:26:48.307Z,37.70
2023-06-17T15:29:16.769Z,37.90
2023-06-17T15:31:44.098Z,38.20
2023-06-17T15:34:11.719Z,38.70
2023-06-17T15:36:38.860Z,39.20
2023-06-17T15:39:22.605Z,39.40
2023-06-17T15:41:52.132Z,39.30
2023-06-17T15:44:20.075Z,39.00
2023-06-17T15:46:48.030Z,38.70
2023-06-17T15:49:15.780Z,38.50
2023-06-17T15:51:42.831Z,38.40
2023-06-17T15:54:09.913Z,38.40
2023-06-17T15:56:38.359Z,38.30
2023-06-17T15:59:06.186Z,38.30
2023-06-17T16:01:33.595Z,38.10
2023-06-17T16:04:09.882Z,38.00
2023-06-17T16:06:58.395Z,38.00
2023-06-17T16:09:27.801Z,37.90
2023-06-17T16:11:54.887Z,37.90
2023-06-17T16:14:21.944Z,37.90
2023-06-17T16:16:48.979Z,37.80
2023-06-17T16:19:16.136Z,37.90
2023-06-17T16:21:43.517Z,38.20
2023-06-17T16:24:12.144Z,38.50
2023-06-17T16:26:39.304Z,38.80
2023-06-17T16:29:06.412Z,39.00
2023-06-17T16:31:33.359Z,38.90
2023-06-17T16:34:00.365Z,38.50
2023-06-17T16:36:29.712Z,38.50
2023-06-17T16:38:57.261Z,38.60
2023-06-17T16:41:24.778Z,38.70
2023-06-17T16:43:51.842Z,38.50
2023-06-17T16:46:19.714Z,38.30
2023-06-17T16:48:46.885Z,38.00
2023-06-17T16:51:13.971Z,38.10
2023-06-17T16:53:41.056Z,38.10
2023-06-17T16:56:08.163Z,38.10
2023-06-17T16:58:35.305Z,38.10
2023-06-17T17:01:05.463Z,37.90
2023-06-17T17:03:32.761Z,37.50
2023-06-17T17:05:59.884Z,37.00
2023-06-17T17:08:26.892Z,36.80
2023-06-17T17:10:53.809Z,36.80
2023-06-17T17:13:21.041Z,36.70
2023-06-17T17:15:48.048Z,36.60
2023-06-17T17:18:15.271Z,36.70
2023-06-17T17:20:42.221Z,36.60
2023-06-17T17:23:09.638Z,36.50
2023-06-17T17:25:39.676Z,36.10
2023-06-17T17:28:06.671Z,35.80
2023-06-17T17:30:36.924Z,35.50
2023-06-17T17:33:04.206Z,35.30
2023-06-17T17:35:31.754Z,35.00
2023-06-17T17:37:58.888Z,34.80
2023-06-17T17:40:25.953Z,34.40
2023-06-17T17:42:53.588Z,34.00
2023-06-17T17:45:20.699Z,33.60
2023-06-17T17:47:48.325Z,33.30
2023-06-17T17:50:15.490Z,32.90
2023-06-17T17:52:42.594Z,32.40
2023-06-17T17:55:09.847Z,32.10
2023-06-17T17:57:36.850Z,31.90
2023-06-17T18:00:04.520Z,31.70
2023-06-17T18:02:38.516Z,31.50
2023-06-17T18:05:06.172Z,31.30
2023-06-17T18:07:37.448Z,31.00
2023-06-17T18:10:04.957Z,30.80
2023-06-17T18:12:32.186Z,30.70
2023-06-17T18:14:59.228Z,30.70
2023-06-17T18:17:26.242Z,30.60
2023-06-17T18:19:53.532Z,30.50
2023-06-17T18:22:20.861Z,30.40
2023-06-17T18:24:47.939Z,30.20
2023-06-17T18:27:30.968Z,30.00
2023-06-17T18:30:04.588Z,29.80
2023-06-17T18:32:32.098Z,29.50
2023-06-17T18:34:59.365Z,29.40
2023-06-17T18:37:26.479Z,29.30
2023-06-17T18:39:53.700Z,29.10
2023-06-17T18:42:20.661Z,29.00
2023-06-17T18:44:50.807Z,28.90
2023-06-17T18:47:17.873Z,28.80
2023-06-17T18:49:45.022Z,28.60
2023-06-17T18:52:12.144Z,28.50
2023-06-17T18:54:39.566Z,28.40
2023-06-17T18:57:06.740Z,28.30
2023-06-17T18:59:33.696Z,28.20
2023-06-17T19:02:01.231Z,28.10
2023-06-17T19:04:43.216Z,28.00
2023-06-17T19:07:10.446Z,27.80
2023-06-17T19:09:37.652Z,27.70
2023-06-17T19:12:05.137Z,27.60
2023-06-17T19:14:32.326Z,27.60
2023-06-17T19:16:59.432Z,27.50
2023-06-17T19:19:26.918Z,27.40
2023-06-17T19:21:53.989Z,27.30
2023-06-17T19:24:21.036Z,27.20
2023-06-17T19:26:48.267Z,27.10
2023-06-17T19:29:15.454Z,27.00
2023-06-17T19:31:42.585Z,26.90
2023-06-17T19:34:09.891Z,26.90
2023-06-17T19:36:37.062Z,26.80
2023-06-17T19:39:04.259Z,26.70
2023-06-17T19:41:31.444Z,26.70
2023-06-17T19:43:58.543Z,26.60
2023-06-17T19:46:29.021Z,26.50
2023-06-17T19:48:55.990Z,26.40
2023-06-17T19:51:23.220Z,26.30
2023-06-17T19:53:50.989Z,26.30
2023-06-17T19:56:19.432Z,26.20
2023-06-17T19:58:46.683Z,26.10
2023-06-17T20:01:13.861Z,26.10
2023-06-17T20:03:41.052Z,26.00
2023-06-17T20:06:08.286Z,25.90
2023-06-17T20:08:35.380Z,25.90
2023-06-17T20:11:03.599Z,25.80
2023-06-17T20:13:30.860Z,25.70
2023-06-17T20:15:57.981Z,25.60
2023-06-17T20:18:25.239Z,25.60
2023-06-17T20:20:52.302Z,25.50
2023-06-17T20:23:19.419Z,25.50
2023-06-17T20:25:46.522Z,25.40
2023-06-17T20:28:13.758Z,25.30
2023-06-17T20:30:41.058Z,25.30
2023-06-17T20:33:08.197Z,25.30
2023-06-17T20:35:35.529Z,25.20
2023-06-17T20:38:06.868Z,25.10
2023-06-17T20:40:34.007Z,25.00
2023-06-17T20:43:01.214Z,25.00
2023-06-17T20:45:29.665Z,24.90
2023-06-17T20:47:56.735Z,24.90
2023-06-17T20:50:24.124Z,24.90
2023-06-17T20:52:52.278Z,24.80
2023-06-17T20:55:20.342Z,24.80
2023-06-17T20:57:50.575Z,24.70
2023-06-17T21:00:18.408Z,24.60
2023-06-17T21:02:45.803Z,24.60
2023-06-17T21:05:14.280Z,24.60
2023-06-17T21:07:43.045Z,24.60
2023-06-17T21:10:11.276Z,24.50
2023-06-17T21:12:45.945Z,24.50
2023-06-17T21:15:13.219Z,24.50
2023-06-17T21:17:40.673Z,24.40
2023-06-17T21:20:09.938Z,24.40
2023-06-17T21:22:37.725Z,24.40
2023-06-17T21:25:07.257Z,24.30
2023-06-17T21:27:36.804Z,24.30
2023-06-17T21:30:05.638Z,24.20
2023-06-17T21:32:34.004Z,24.20
2023-06-17T21:35:01.429Z,24.10
2023-06-17T21:37:28.465Z,24.00
2023-06-17T21:39:56.291Z,23.90
2023-06-17T21:42:23.535Z,23.90
2023-06-17T21:44:50.848Z,23.80
2023-06-17T21:47:18.209Z,23.70
2023-06-17T21:49:45.220Z,23.70
2023-06-17T21:52:12.556Z,23.70
2023-06-17T21:54:39.776Z,23.70
2023-06-17T21:57:07.336Z,23.60
2023-06-17T21:59:35.053Z,23.60
2023-06-17T22:02:02.197Z,23.60
2023-06-17T22:04:31.879Z,23.60
2023-06-17T22:06:58.897Z,23.50
2023-06-17T22:09:26.780Z,23.60
2023-06-17T22:11:53.795Z,23.60
2023-06-17T22:14:20.791Z,23.60
2023-06-17T22:16:47.808Z,23.60
2023-06-17T22:19:15.069Z,23.60
2023-06-17T22:21:42.053Z,23.60
2023-06-17T22:24:11.807Z,23.60
2023-06-17T22:26:39.722Z,23.60
2023-06-17T22:29:06.646Z,23.60
2023-06-17T22:31:33.699Z,23.60
2023-06-17T22:34:00.906Z,23.60
2023-06-17T22:36:28.004Z,23.60
2023-06-17T22:38:54.959Z,23.60
2023-06-17T22:41:21.956Z,23.60
2023-06-17T22:43:49.501Z,23.50
2023-06-17T22:46:16.528Z,23.50
2023-06-17T22:48:43.473Z,23.50
2023-06-17T22:51:10.689Z,23.40
2023-06-17T22:53:40.132Z,23.40
2023-06-17T22:56:07.141Z,23.30
2023-06-17T22:58:34.288Z,23.30
2023-06-17T23:01:01.572Z,23.30
2023-06-17T23:03:28.730Z,23.20
2023-06-17T23:05:56.213Z,23.30
2023-06-17T23:08:23.213Z,23.20
2023-06-17T23:10:50.496Z,23.30
2023-06-17T23:13:20.746Z,23.20
2023-06-17T23:15:47.896Z,23.30
2023-06-17T23:18:14.869Z,23.30
2023-06-17T23:20:42.724Z,23.20
2023-06-17T23:23:12.351Z,23.20
2023-06-17T23:25:39.381Z,23.20
2023-06-17T23:28:09.682Z,23.20
2023-06-17T23:30:39.742Z,23.20
2023-06-17T23:33:06.914Z,23.20
2023-06-17T23:35:33.925Z,23.20
2023-06-17T23:38:00.936Z,23.20
2023-06-17T23:40:28.117Z,23.20
2023-06-17T23:42:55.052Z,23.20
2023-06-17T23:45:25.926Z,23.20
2023-06-17T23:47:53.549Z,23.20
2023-06-17T23:50:21.018Z,23.20
2023-06-17T23:52:48.144Z,23.20
2023-06-17T23:55:15.312Z,23.20
2023-06-17T23:57:48.494Z,23.20
